createdAt,value
2018-04-06T00:00:26.645Z,81.82
2018-04-06T00:01:26.872Z,81.72
2018-04-06T00:02:27.095Z,82.01
2018-04-06T00:03:27.319Z,82.10
2018-04-06T00:04:27.541Z,81.15
2018-04-06T00:05:27.768Z,81.34
2018-04-06T00:06:27.989Z,80.68
2018-04-06T00:07:28.219Z,80.87
2018-04-06T00:08:28.445Z,80.87
2018-04-06T00:09:28.668Z,80.77
2018-04-06T00:10:28.895Z,81.44
2018-04-06T00:11:29.114Z,82.10
2018-04-06T00:12:29.336Z,81.44
2018-04-06T00:13:29.583Z,81.63
2018-04-06T00:14:29.786Z,81.25
2018-04-06T00:15:30.012Z,81.53
2018-04-06T00:16:30.239Z,81.53
2018-04-06T00:17:30.462Z,81.44
2018-04-06T00:18:30.692Z,81.15
2018-04-06T00:19:30.912Z,81.15
2018-04-06T00:20:31.135Z,80.77
2018-04-06T00:21:31.359Z,81.34
2018-04-06T00:22:31.581Z,81.25
2018-04-06T00:23:31.805Z,81.44
2018-04-06T00:24:32.036Z,80.77
2018-04-06T00:25:32.253Z,80.40
2018-04-06T00:26:32.481Z,80.11
2018-04-06T00:27:32.698Z,80.30
2018-04-06T00:28:32.920Z,80.40
2018-04-06T00:29:33.149Z,80.11
2018-04-06T00:30:33.371Z,79.93
2018-04-06T00:31:33.596Z,80.02
2018-04-06T00:32:33.822Z,80.30
2018-04-06T00:33:34.053Z,80.49
2018-04-06T00:34:34.279Z,80.30
2018-04-06T00:35:34.498Z,80.02
2018-04-06T00:36:34.723Z,80.21
2018-04-06T00:37:34.947Z,80.40
2018-04-06T00:38:35.173Z,81.25
2018-04-06T00:39:35.396Z,80.96
2018-04-06T00:40:35.622Z,81.15
2018-04-06T00:41:35.845Z,80.96
2018-04-06T00:42:36.070Z,81.34
2018-04-06T00:43:36.289Z,81.34
2018-04-06T00:44:36.512Z,81.53
2018-04-06T00:45:36.737Z,81.25
2018-04-06T00:46:36.961Z,81.25
2018-04-06T00:47:37.184Z,81.40
2018-04-06T00:48:37.410Z,82.06
2018-04-06T00:49:37.633Z,82.44
2018-04-06T00:50:37.856Z,82.63
2018-04-06T00:51:38.082Z,82.63
2018-04-06T00:52:38.305Z,82.34
2018-04-06T00:53:38.531Z,83.76
2018-04-06T00:54:38.754Z,83.86
2018-04-06T00:55:38.979Z,83.76
2018-04-06T00:56:39.203Z,84.42
2018-04-06T00:57:39.427Z,84.23
2018-04-06T00:58:39.649Z,84.33
2018-04-06T00:59:39.875Z,83.48
2018-04-06T01:00:40.099Z,83.20
2018-04-06T01:01:40.324Z,83.29
2018-04-06T01:02:40.550Z,83.58
2018-04-06T01:03:40.773Z,83.86
2018-04-06T01:04:40.995Z,83.76
2018-04-06T01:05:41.219Z,83.20
2018-04-06T01:06:41.445Z,83.39
2018-04-06T01:07:41.675Z,83.58
2018-04-06T01:08:41.893Z,84.01
2018-04-06T01:09:42.118Z,84.52
2018-04-06T01:10:42.342Z,84.67
2018-04-06T01:11:42.564Z,83.95
2018-04-06T01:12:42.791Z,84.05
2018-04-06T01:13:43.012Z,83.67
2018-04-06T01:14:43.243Z,82.91
2018-04-06T01:15:43.464Z,82.53
2018-04-06T01:16:43.685Z,82.53
2018-04-06T01:17:43.912Z,83.39
2018-04-06T01:18:44.142Z,84.14
2018-04-06T01:19:44.366Z,84.52
2018-04-06T01:20:44.593Z,84.14
2018-04-06T01:21:44.815Z,83.95
2018-04-06T01:22:45.039Z,84.33
2018-04-06T01:23:45.264Z,83.86
2018-04-06T01:24:45.485Z,84.33
2018-04-06T01:25:45.711Z,84.29
2018-04-06T01:26:45.932Z,84.67
2018-04-06T01:27:46.159Z,85.14
2018-04-06T01:28:46.383Z,85.52
2018-04-06T01:29:46.606Z,86.28
2018-04-06T01:30:46.830Z,85.99
2018-04-06T01:31:47.054Z,85.71
2018-04-06T01:32:47.276Z,85.00
2018-04-06T01:33:47.498Z,84.05
2018-04-06T01:34:47.725Z,84.05
2018-04-06T01:35:47.952Z,83.86
2018-04-06T01:36:48.176Z,83.20
2018-04-06T01:37:48.400Z,83.01
2018-04-06T01:38:48.627Z,83.20
2018-04-06T01:39:48.848Z,82.63
2018-04-06T01:40:49.069Z,82.44
2018-04-06T01:41:49.293Z,82.53
2018-04-06T01:42:49.517Z,82.63
2018-04-06T01:43:49.745Z,82.63
2018-04-06T01:44:49.970Z,82.82
2018-04-06T01:45:50.192Z,82.53
2018-04-06T01:46:50.416Z,83.29
2018-04-06T01:47:50.639Z,82.63
2018-04-06T01:48:50.861Z,82.63
2018-04-06T01:49:51.087Z,82.53
2018-04-06T01:50:51.314Z,82.63
2018-04-06T01:51:51.533Z,83.82
2018-04-06T01:52:51.762Z,83.63
2018-04-06T01:53:51.983Z,84.20
2018-04-06T01:54:52.207Z,83.95
2018-04-06T01:55:52.433Z,83.86
2018-04-06T01:56:52.656Z,82.53
2018-04-06T01:57:52.882Z,82.53
2018-04-06T01:58:53.102Z,82.15
2018-04-06T01:59:53.365Z,81.96
2018-04-06T02:00:53.565Z,82.59
2018-04-06T02:01:53.781Z,83.82
2018-04-06T02:02:54.004Z,83.67
2018-04-06T02:03:54.229Z,83.20
2018-04-06T02:04:54.450Z,82.82
2018-04-06T02:05:54.674Z,82.82
2018-04-06T02:06:54.894Z,83.01
2018-04-06T02:07:55.121Z,83.10
2018-04-06T02:08:55.344Z,82.91
2018-04-06T02:09:55.619Z,82.82
2018-04-06T02:10:55.788Z,82.82
2018-04-06T02:11:56.013Z,82.72
2018-04-06T02:12:56.234Z,83.29
2018-04-06T02:13:56.456Z,83.53
2018-04-06T02:14:56.680Z,83.82
2018-04-06T02:15:56.903Z,83.86
2018-04-06T02:16:57.129Z,83.86
2018-04-06T02:17:57.353Z,83.72
2018-04-06T02:18:57.579Z,83.91
2018-04-06T02:19:57.804Z,83.63
2018-04-06T02:20:58.031Z,83.63
2018-04-06T02:21:58.251Z,84.10
2018-04-06T02:22:58.477Z,84.10
2018-04-06T02:23:58.702Z,83.91
2018-04-06T02:24:58.923Z,84.20
2018-04-06T02:25:59.150Z,84.58
2018-04-06T02:26:59.372Z,83.91
2018-04-06T02:27:59.594Z,84.48
2018-04-06T02:28:59.820Z,84.58
2018-04-06T02:30:00.044Z,84.86
2018-04-06T02:31:00.272Z,84.67
2018-04-06T02:32:00.496Z,84.86
2018-04-06T02:33:00.713Z,85.61
2018-04-06T02:34:00.936Z,86.37
2018-04-06T02:35:01.161Z,85.61
2018-04-06T02:36:01.385Z,84.77
2018-04-06T02:37:01.608Z,84.77
2018-04-06T02:38:01.841Z,84.29
2018-04-06T02:39:02.061Z,84.39
2018-04-06T02:40:02.290Z,84.39
2018-04-06T02:41:02.511Z,84.67
2018-04-06T02:42:02.730Z,84.86
2018-04-06T02:43:02.953Z,85.05
2018-04-06T02:44:03.178Z,84.39
2018-04-06T02:45:03.401Z,84.77
2018-04-06T02:46:03.628Z,85.05
2018-04-06T02:47:03.848Z,84.86
2018-04-06T02:48:04.071Z,85.14
2018-04-06T02:49:04.298Z,85.71
2018-04-06T02:50:04.522Z,85.33
2018-04-06T02:51:04.754Z,84.77
2018-04-06T02:52:04.974Z,84.67
2018-04-06T02:53:05.201Z,84.39
2018-04-06T02:54:05.421Z,84.48
2018-04-06T02:55:05.647Z,83.63
2018-04-06T02:56:05.872Z,83.72
2018-04-06T02:57:06.097Z,83.25
2018-04-06T02:58:06.317Z,83.91
2018-04-06T02:59:06.543Z,83.82
2018-04-06T03:00:06.765Z,83.34
2018-04-06T03:01:06.991Z,83.53
2018-04-06T03:02:07.211Z,82.97
2018-04-06T03:03:07.488Z,83.34
2018-04-06T03:04:07.660Z,82.97
2018-04-06T03:05:07.883Z,82.59
2018-04-06T03:06:08.109Z,82.97
2018-04-06T03:07:08.334Z,83.72
2018-04-06T03:08:08.555Z,83.06
2018-04-06T03:09:08.781Z,83.25
2018-04-06T03:10:09.004Z,83.53
2018-04-06T03:11:09.228Z,83.72
2018-04-06T03:12:09.455Z,83.53
2018-04-06T03:13:09.674Z,83.53
2018-04-06T03:14:09.897Z,83.87
2018-04-06T03:15:10.123Z,84.10
2018-04-06T03:16:10.346Z,84.06
2018-04-06T03:17:10.570Z,84.16
2018-04-06T03:18:10.792Z,84.81
2018-04-06T03:19:11.017Z,84.67
2018-04-06T03:20:11.240Z,84.77
2018-04-06T03:21:11.463Z,84.72
2018-04-06T03:22:11.687Z,84.67
2018-04-06T03:23:11.911Z,83.91
2018-04-06T03:24:12.137Z,84.01
2018-04-06T03:25:12.361Z,84.58
2018-04-06T03:26:12.585Z,84.81
2018-04-06T03:27:12.809Z,84.91
2018-04-06T03:28:13.034Z,85.76
2018-04-06T03:29:13.256Z,85.76
2018-04-06T03:30:13.481Z,84.72
2018-04-06T03:31:13.708Z,85.14
2018-04-06T03:32:13.926Z,84.67
2018-04-06T03:33:14.152Z,84.39
2018-04-06T03:34:14.376Z,84.34
2018-04-06T03:35:14.605Z,84.72
2018-04-06T03:36:14.823Z,85.10
2018-04-06T03:37:15.046Z,85.66
2018-04-06T03:38:15.269Z,85.19
2018-04-06T03:39:15.492Z,84.91
2018-04-06T03:40:15.717Z,84.72
2018-04-06T03:41:15.939Z,84.72
2018-04-06T03:42:16.162Z,84.72
2018-04-06T03:43:16.386Z,84.72
2018-04-06T03:44:16.611Z,84.72
2018-04-06T03:45:16.835Z,84.81
2018-04-06T03:46:17.057Z,84.01
2018-04-06T03:47:17.282Z,83.72
2018-04-06T03:48:17.505Z,83.91
2018-04-06T03:49:17.731Z,83.44
2018-04-06T03:50:17.951Z,83.63
2018-04-06T03:51:18.173Z,83.25
2018-04-06T03:52:18.398Z,82.97
2018-04-06T03:53:18.623Z,83.53
2018-04-06T03:54:18.844Z,83.82
2018-04-06T03:55:19.066Z,83.40
2018-04-06T03:56:19.289Z,84.06
2018-04-06T03:57:19.514Z,83.87
2018-04-06T03:58:19.735Z,83.78
2018-04-06T03:59:19.960Z,83.68
2018-04-06T04:00:20.183Z,84.34
2018-04-06T04:01:20.406Z,84.44
2018-04-06T04:02:20.631Z,84.20
2018-04-06T04:03:20.852Z,83.97
2018-04-06T04:04:21.076Z,83.97
2018-04-06T04:05:21.300Z,84.06
2018-04-06T04:06:21.525Z,84.25
2018-04-06T04:07:21.746Z,84.25
2018-04-06T04:08:21.970Z,83.87
2018-04-06T04:09:22.193Z,84.06
2018-04-06T04:10:22.417Z,83.87
2018-04-06T04:11:22.642Z,83.40
2018-04-06T04:12:22.865Z,83.59
2018-04-06T04:13:23.089Z,84.16
2018-04-06T04:14:23.312Z,84.06
2018-04-06T04:15:23.534Z,83.59
2018-04-06T04:16:23.759Z,84.06
2018-04-06T04:17:23.982Z,84.06
2018-04-06T04:18:24.246Z,84.34
2018-04-06T04:19:24.431Z,84.34
2018-04-06T04:20:24.653Z,84.34
2018-04-06T04:21:24.874Z,84.34
2018-04-06T04:22:25.098Z,83.78
2018-04-06T04:23:25.323Z,84.06
2018-04-06T04:24:25.545Z,84.25
2018-04-06T04:25:25.767Z,83.87
2018-04-06T04:26:25.990Z,83.49
2018-04-06T04:27:26.214Z,83.30
2018-04-06T04:28:26.435Z,83.59
2018-04-06T04:29:26.659Z,83.68
2018-04-06T04:30:26.897Z,83.87
2018-04-06T04:31:27.107Z,83.87
2018-04-06T04:32:27.329Z,83.30
2018-04-06T04:33:27.551Z,83.87
2018-04-06T04:34:27.820Z,83.30
2018-04-06T04:35:27.999Z,83.78
2018-04-06T04:36:28.222Z,83.30
2018-04-06T04:37:28.447Z,84.06
2018-04-06T04:38:28.671Z,84.34
2018-04-06T04:39:28.893Z,84.81
2018-04-06T04:40:29.118Z,84.53
2018-04-06T04:41:29.341Z,84.81
2018-04-06T04:42:29.566Z,84.25
2018-04-06T04:43:29.788Z,84.06
2018-04-06T04:44:30.016Z,84.34
2018-04-06T04:45:30.236Z,83.78
2018-04-06T04:46:30.457Z,84.25
2018-04-06T04:47:30.680Z,84.34
2018-04-06T04:48:30.905Z,84.63
2018-04-06T04:49:31.127Z,84.81
2018-04-06T04:50:31.351Z,85.28
2018-04-06T04:51:31.574Z,84.72
2018-04-06T04:52:31.796Z,85.00
2018-04-06T04:53:32.019Z,85.57
2018-04-06T04:54:32.243Z,85.57
2018-04-06T04:55:32.468Z,84.72
2018-04-06T04:56:32.692Z,84.91
2018-04-06T04:57:32.914Z,84.34
2018-04-06T04:58:33.143Z,84.06
2018-04-06T04:59:33.363Z,84.06
2018-04-06T05:00:33.591Z,84.01
2018-04-06T05:01:33.813Z,83.91
2018-04-06T05:02:34.033Z,84.10
2018-04-06T05:03:34.259Z,83.82
2018-04-06T05:04:34.484Z,84.29
2018-04-06T05:05:34.707Z,83.91
2018-04-06T05:06:34.929Z,84.20
2018-04-06T05:07:35.153Z,83.91
2018-04-06T05:08:35.376Z,83.82
2018-04-06T05:09:35.597Z,83.63
2018-04-06T05:10:35.823Z,83.44
2018-04-06T05:11:36.044Z,83.82
2018-04-06T05:12:36.270Z,83.53
2018-04-06T05:13:36.493Z,82.59
2018-04-06T05:14:36.714Z,82.50
2018-04-06T05:15:36.939Z,82.63
2018-04-06T05:16:37.160Z,82.53
2018-04-06T05:17:37.416Z,82.53
2018-04-06T05:18:37.606Z,83.01
2018-04-06T05:19:37.831Z,82.82
2018-04-06T05:20:38.055Z,82.82
2018-04-06T05:21:38.277Z,83.01
2018-04-06T05:22:38.502Z,83.58
2018-04-06T05:23:38.726Z,83.01
2018-04-06T05:24:38.989Z,83.10
2018-04-06T05:25:39.171Z,83.01
2018-04-06T05:26:39.398Z,83.67
2018-04-06T05:27:39.624Z,83.39
2018-04-06T05:28:39.849Z,83.95
2018-04-06T05:29:40.073Z,83.95
2018-04-06T05:30:40.316Z,83.76
2018-04-06T05:31:40.541Z,84.05
2018-04-06T05:32:40.764Z,84.33
2018-04-06T05:33:40.990Z,83.67
2018-04-06T05:34:41.214Z,83.86
2018-04-06T05:35:41.439Z,83.01
2018-04-06T05:36:41.667Z,83.01
2018-04-06T05:37:41.886Z,82.72
2018-04-06T05:38:42.174Z,82.63
2018-04-06T05:39:42.335Z,82.67
2018-04-06T05:40:42.561Z,82.39
2018-04-06T05:41:42.787Z,81.53
2018-04-06T05:42:43.011Z,81.63
2018-04-06T05:43:43.235Z,80.87
2018-04-06T05:44:43.462Z,80.87
2018-04-06T05:45:43.690Z,80.21
2018-04-06T05:46:43.910Z,80.53
2018-04-06T05:47:44.134Z,79.96
2018-04-06T05:48:44.359Z,79.68
2018-04-06T05:49:44.584Z,78.73
2018-04-06T05:50:44.808Z,78.64
2018-04-06T05:51:45.034Z,77.06
2018-04-06T05:52:45.257Z,76.21
2018-04-06T05:53:45.483Z,75.74
2018-04-06T05:54:45.709Z,74.98
2018-04-06T05:55:45.932Z,74.32
2018-04-06T05:56:46.160Z,74.79
2018-04-06T05:57:46.390Z,75.17
2018-04-06T05:58:46.609Z,74.41
2018-04-06T05:59:46.836Z,74.41
2018-04-06T06:00:47.061Z,74.22
2018-04-06T06:01:47.288Z,74.32
2018-04-06T06:02:47.513Z,73.69
2018-04-06T06:03:47.740Z,72.02
2018-04-06T06:04:47.966Z,70.50
2018-04-06T06:05:48.193Z,69.59
2018-04-06T06:06:48.418Z,67.91
2018-04-06T06:07:48.644Z,66.24
2018-04-06T06:08:48.870Z,64.02
2018-04-06T06:09:49.113Z,63.67
2018-04-06T06:10:49.340Z,62.75
2018-04-06T06:11:49.568Z,61.42
2018-04-06T06:12:49.796Z,60.18
2018-04-06T06:13:50.025Z,60.50
2018-04-06T06:14:50.252Z,59.07
2018-04-06T06:15:50.481Z,58.50
2018-04-06T06:16:50.709Z,57.96
2018-04-06T06:17:50.988Z,56.05
2018-04-06T06:18:51.163Z,55.80
2018-04-06T06:19:51.391Z,54.66
2018-04-06T06:20:51.620Z,54.08
2018-04-06T06:21:51.851Z,54.47
2018-04-06T06:22:52.079Z,53.95
2018-04-06T06:23:52.310Z,51.76
2018-04-06T06:24:52.537Z,50.54
2018-04-06T06:25:52.775Z,49.97
2018-04-06T06:26:52.997Z,49.02
2018-04-06T06:27:53.227Z,48.52
2018-04-06T06:28:53.453Z,49.66
2018-04-06T06:29:53.684Z,50.73
2018-04-06T06:30:53.912Z,49.90
2018-04-06T06:31:54.143Z,47.80
2018-04-06T06:32:54.371Z,47.58
2018-04-06T06:33:54.601Z,48.47
2018-04-06T06:34:54.829Z,48.37
2018-04-06T06:35:55.058Z,47.44
2018-04-06T06:36:55.311Z,46.30
2018-04-06T06:37:55.517Z,45.63
2018-04-06T06:38:55.745Z,45.34
2018-04-06T06:39:55.983Z,45.63
2018-04-06T06:40:56.209Z,45.63
2018-04-06T06:41:56.435Z,45.43
2018-04-06T06:42:56.743Z,45.63
2018-04-06T06:43:56.900Z,45.61
2018-04-06T06:44:57.127Z,46.15
2018-04-06T06:45:57.355Z,47.49
2018-04-06T06:46:57.587Z,49.73
2018-04-06T06:47:57.820Z,50.75
2018-04-06T06:48:58.049Z,51.99
2018-04-06T06:49:58.278Z,53.77
2018-04-06T06:50:58.514Z,54.82
2018-04-06T06:51:58.735Z,54.35
2018-04-06T06:52:58.970Z,55.46
2018-04-06T06:53:59.202Z,58.00
2018-04-06T06:54:59.426Z,59.52
2018-04-06T06:55:59.656Z,59.71
2018-04-06T06:56:59.886Z,59.39
2018-04-06T06:58:00.115Z,60.53
2018-04-06T06:59:00.348Z,60.35
2018-04-06T07:00:00.577Z,60.91
2018-04-06T07:01:00.805Z,61.39
2018-04-06T07:02:01.038Z,61.87
2018-04-06T07:03:01.263Z,63.35
2018-04-06T07:04:01.489Z,65.06
2018-04-06T07:05:01.724Z,65.44
2018-04-06T07:06:01.948Z,65.06
2018-04-06T07:07:02.175Z,64.94
2018-04-06T07:08:02.409Z,65.16
2018-04-06T07:09:02.632Z,64.40
2018-04-06T07:10:02.858Z,64.87
2018-04-06T07:11:03.092Z,64.40
2018-04-06T07:12:03.321Z,64.02
2018-04-06T07:13:03.549Z,64.49
2018-04-06T07:14:03.829Z,64.21
2018-04-06T07:15:04.011Z,63.35
2018-04-06T07:16:04.235Z,63.64
2018-04-06T07:17:04.462Z,63.64
2018-04-06T07:18:04.691Z,63.64
2018-04-06T07:19:04.920Z,63.83
2018-04-06T07:20:05.154Z,65.16
2018-04-06T07:21:05.384Z,65.16
2018-04-06T07:22:05.612Z,64.30
2018-04-06T07:23:05.839Z,64.49
2018-04-06T07:24:06.069Z,64.21
2018-04-06T07:25:06.297Z,63.83
2018-04-06T07:26:06.552Z,64.40
2018-04-06T07:27:06.755Z,64.87
2018-04-06T07:28:06.977Z,64.97
2018-04-06T07:29:07.205Z,65.16
2018-04-06T07:30:07.428Z,65.54
2018-04-06T07:31:07.657Z,65.63
2018-04-06T07:32:07.887Z,66.58
2018-04-06T07:33:08.113Z,66.01
2018-04-06T07:34:08.338Z,66.30
2018-04-06T07:35:08.570Z,66.11
2018-04-06T07:36:08.795Z,65.73
2018-04-06T07:37:09.024Z,65.73
2018-04-06T07:38:09.258Z,66.11
2018-04-06T07:39:09.478Z,66.20
2018-04-06T07:40:09.707Z,67.88
2018-04-06T07:41:09.933Z,67.34
2018-04-06T07:42:10.170Z,67.25
2018-04-06T07:43:10.393Z,67.82
2018-04-06T07:44:10.643Z,66.96
2018-04-06T07:45:10.851Z,66.58
2018-04-06T07:46:11.072Z,66.01
2018-04-06T07:47:11.306Z,66.39
2018-04-06T07:48:11.533Z,66.39
2018-04-06T07:49:11.761Z,66.87
2018-04-06T07:50:11.989Z,66.96
2018-04-06T07:51:12.217Z,67.06
2018-04-06T07:52:12.444Z,68.19
2018-04-06T07:53:12.673Z,67.72
2018-04-06T07:54:12.902Z,66.61
2018-04-06T07:55:13.129Z,66.05
2018-04-06T07:56:13.363Z,65.28
2018-04-06T07:57:13.585Z,65.47
2018-04-06T07:58:13.819Z,64.53
2018-04-06T07:59:14.047Z,64.43
2018-04-06T08:00:14.272Z,65.00
2018-04-06T08:01:14.501Z,64.24
2018-04-06T08:02:14.733Z,64.81
2018-04-06T08:03:14.956Z,65.60
2018-04-06T08:04:15.183Z,65.03
2018-04-06T08:05:15.412Z,65.13
2018-04-06T08:06:15.649Z,65.60
2018-04-06T08:07:15.873Z,63.67
2018-04-06T08:08:16.108Z,64.72
2018-04-06T08:09:16.335Z,64.81
2018-04-06T08:10:16.553Z,63.99
2018-04-06T08:11:16.782Z,63.32
2018-04-06T08:12:17.012Z,62.46
2018-04-06T08:13:17.246Z,62.46
2018-04-06T08:14:17.468Z,62.18
2018-04-06T08:15:17.703Z,61.96
2018-04-06T08:16:17.919Z,62.75
2018-04-06T08:17:18.153Z,63.23
2018-04-06T08:18:18.384Z,63.23
2018-04-06T08:19:18.612Z,63.04
2018-04-06T08:20:18.840Z,62.65
2018-04-06T08:21:19.075Z,62.65
2018-04-06T08:22:19.295Z,62.02
2018-04-06T08:23:19.523Z,62.18
2018-04-06T08:24:19.752Z,62.37
2018-04-06T08:25:19.980Z,63.13
2018-04-06T08:26:20.275Z,63.51
2018-04-06T08:27:20.440Z,63.51
2018-04-06T08:28:20.668Z,63.51
2018-04-06T08:29:20.895Z,62.94
2018-04-06T08:30:21.125Z,62.85
2018-04-06T08:31:21.356Z,63.42
2018-04-06T08:32:21.587Z,63.32
2018-04-06T08:33:21.811Z,62.18
2018-04-06T08:34:22.038Z,62.46
2018-04-06T08:35:22.265Z,61.90
2018-04-06T08:36:22.493Z,62.08
2018-04-06T08:37:22.726Z,62.46
2018-04-06T08:38:22.958Z,61.23
2018-04-06T08:39:23.178Z,61.23
2018-04-06T08:40:23.405Z,60.75
2018-04-06T08:41:23.632Z,59.99
2018-04-06T08:42:23.864Z,61.04
2018-04-06T08:43:24.091Z,61.80
2018-04-06T08:44:24.320Z,60.38
2018-04-06T08:45:24.545Z,59.99
2018-04-06T08:46:24.776Z,58.95
2018-04-06T08:47:25.002Z,58.76
2018-04-06T08:48:25.232Z,58.37
2018-04-06T08:49:25.462Z,57.93
2018-04-06T08:50:25.689Z,59.55
2018-04-06T08:51:25.925Z,58.79
2018-04-06T08:52:26.147Z,57.17
2018-04-06T08:53:26.372Z,57.26
2018-04-06T08:54:26.598Z,56.70
2018-04-06T08:55:26.823Z,56.88
2018-04-06T08:56:27.052Z,56.98
2018-04-06T08:57:27.280Z,57.74
2018-04-06T08:58:27.506Z,57.65
2018-04-06T08:59:27.739Z,56.92
2018-04-06T09:00:27.963Z,55.96
2018-04-06T09:01:28.188Z,54.89
2018-04-06T09:02:28.414Z,53.94
2018-04-06T09:03:28.641Z,53.65
2018-04-06T09:04:28.868Z,53.77
2018-04-06T09:05:29.096Z,53.87
2018-04-06T09:06:29.329Z,54.15
2018-04-06T09:07:29.556Z,53.01
2018-04-06T09:08:29.786Z,52.82
2018-04-06T09:09:30.009Z,53.87
2018-04-06T09:10:30.238Z,48.92
2018-04-06T09:11:30.467Z,46.44
2018-04-06T09:12:30.712Z,46.63
2018-04-06T09:13:30.926Z,48.25
2018-04-06T09:14:31.153Z,48.73
2018-04-06T09:15:31.404Z,47.58
2018-04-06T09:16:31.636Z,46.61
2018-04-06T09:17:31.838Z,46.63
2018-04-06T09:18:32.069Z,46.92
2018-04-06T09:19:32.304Z,47.02
2018-04-06T09:20:32.527Z,46.73
2018-04-06T09:21:32.761Z,46.63
2018-04-06T09:22:32.979Z,46.83
2018-04-06T09:23:33.207Z,47.20
2018-04-06T09:24:33.440Z,46.54
2018-04-06T09:25:33.665Z,46.63
2018-04-06T09:26:33.897Z,46.92
2018-04-06T09:27:34.134Z,47.20
2018-04-06T09:28:34.352Z,47.58
2018-04-06T09:29:34.576Z,46.73
2018-04-06T09:30:34.807Z,47.39
2018-04-06T09:31:35.036Z,47.68
2018-04-06T09:32:35.269Z,47.49
2018-04-06T09:33:35.499Z,47.49
2018-04-06T09:34:35.723Z,47.97
2018-04-06T09:35:35.953Z,49.40
2018-04-06T09:36:36.176Z,48.25
2018-04-06T09:37:36.411Z,48.25
2018-04-06T09:38:36.632Z,48.18
2018-04-06T09:39:36.863Z,48.63
2018-04-06T09:40:37.091Z,49.13
2018-04-06T09:41:37.332Z,48.75
2018-04-06T09:42:37.548Z,49.80
2018-04-06T09:43:37.778Z,48.47
2018-04-06T09:44:38.005Z,48.27
2018-04-06T09:45:38.240Z,48.27
2018-04-06T09:46:38.458Z,48.37
2018-04-06T09:47:38.689Z,48.94
2018-04-06T09:48:38.921Z,47.23
2018-04-06T09:49:39.143Z,46.66
2018-04-06T09:50:39.374Z,46.75
2018-04-06T09:51:39.598Z,47.04
2018-04-06T09:52:39.827Z,46.68
2018-04-06T09:53:40.051Z,46.11
2018-04-06T09:54:40.284Z,44.68
2018-04-06T09:55:40.520Z,44.11
2018-04-06T09:56:40.745Z,44.39
2018-04-06T09:57:40.983Z,44.78
2018-04-06T09:58:41.202Z,45.35
2018-04-06T09:59:41.431Z,45.63
2018-04-06T10:00:41.660Z,45.92
2018-04-06T10:01:41.890Z,46.84
2018-04-06T10:02:42.124Z,46.49
2018-04-06T10:03:42.352Z,46.30
2018-04-06T10:04:42.570Z,46.39
2018-04-06T10:05:42.805Z,47.34
2018-04-06T10:06:43.027Z,46.58
2018-04-06T10:07:43.271Z,46.70
2018-04-06T10:08:43.484Z,46.32
2018-04-06T10:09:43.711Z,44.99
2018-04-06T10:10:43.939Z,44.70
2018-04-06T10:11:44.162Z,44.04
2018-04-06T10:12:44.390Z,44.23
2018-04-06T10:13:44.619Z,42.96
2018-04-06T10:14:44.843Z,42.80
2018-04-06T10:15:45.074Z,42.58
2018-04-06T10:16:45.301Z,43.44
2018-04-06T10:17:45.530Z,43.06
2018-04-06T10:18:45.763Z,42.58
2018-04-06T10:19:45.989Z,41.44
2018-04-06T10:20:46.222Z,41.44
2018-04-06T10:21:46.453Z,40.99
2018-04-06T10:22:46.678Z,39.46
2018-04-06T10:23:46.908Z,38.60
2018-04-06T10:24:47.136Z,38.01
2018-04-06T10:25:47.363Z,38.87
2018-04-06T10:26:47.589Z,40.39
2018-04-06T10:27:47.818Z,40.41
2018-04-06T10:28:48.049Z,39.46
2018-04-06T10:29:48.273Z,38.22
2018-04-06T10:30:48.505Z,37.93
2018-04-06T10:31:48.733Z,38.41
2018-04-06T10:32:48.962Z,38.22
2018-04-06T10:33:49.190Z,37.08
2018-04-06T10:34:49.432Z,36.60
2018-04-06T10:35:49.645Z,36.79
2018-04-06T10:36:49.872Z,36.69
2018-04-06T10:37:50.103Z,37.17
2018-04-06T10:38:50.334Z,37.08
2018-04-06T10:39:50.561Z,38.12
2018-04-06T10:40:50.795Z,38.03
2018-04-06T10:41:51.015Z,36.71
2018-04-06T10:42:51.247Z,35.95
2018-04-06T10:43:51.474Z,35.86
2018-04-06T10:44:51.704Z,34.60
2018-04-06T10:45:51.937Z,36.12
2018-04-06T10:46:52.182Z,35.86
2018-04-06T10:47:52.386Z,36.05
2018-04-06T10:48:52.616Z,36.62
2018-04-06T10:49:52.843Z,35.76
2018-04-06T10:50:53.073Z,32.04
2018-04-06T10:51:53.301Z,30.61
2018-04-06T10:52:53.530Z,29.27
2018-04-06T10:53:53.758Z,29.18
2018-04-06T10:54:53.986Z,29.29
2018-04-06T10:55:54.216Z,29.00
2018-04-06T10:56:54.448Z,30.53
2018-04-06T10:57:54.679Z,31.20
2018-04-06T10:58:54.905Z,31.77
2018-04-06T10:59:55.134Z,30.24
2018-04-06T11:00:55.376Z,28.91
2018-04-06T11:01:55.603Z,30.91
2018-04-06T11:02:55.837Z,29.29
2018-04-06T11:03:56.060Z,26.72
2018-04-06T11:04:56.288Z,26.62
2018-04-06T11:05:56.517Z,27.19
2018-04-06T11:06:56.745Z,26.62
2018-04-06T11:07:56.978Z,27.57
2018-04-06T11:08:57.206Z,27.48
2018-04-06T11:09:57.431Z,27.97
2018-04-06T11:10:57.665Z,27.97
2018-04-06T11:11:57.892Z,28.83
2018-04-06T11:12:58.123Z,29.59
2018-04-06T11:13:58.350Z,30.26
2018-04-06T11:14:58.581Z,27.68
2018-04-06T11:15:58.802Z,26.34
2018-04-06T11:16:59.036Z,26.54
2018-04-06T11:17:59.272Z,27.59
2018-04-06T11:18:59.503Z,27.68
2018-04-06T11:19:59.729Z,27.59
2018-04-06T11:20:59.958Z,27.01
2018-04-06T11:22:00.191Z,25.77
2018-04-06T11:23:00.427Z,26.15
2018-04-06T11:24:00.639Z,27.01
2018-04-06T11:25:00.869Z,27.39
2018-04-06T11:26:01.104Z,27.68
2018-04-06T11:27:01.326Z,29.49
2018-04-06T11:28:01.555Z,30.07
2018-04-06T11:29:01.786Z,30.08
2018-04-06T11:30:02.015Z,31.13
2018-04-06T11:31:02.244Z,29.59
2018-04-06T11:32:02.477Z,27.12
2018-04-06T11:33:02.702Z,27.50
2018-04-06T11:34:02.931Z,28.25
2018-04-06T11:35:03.161Z,28.94
2018-04-06T11:36:03.387Z,27.20
2018-04-06T11:37:03.614Z,26.73
2018-04-06T11:38:03.853Z,27.20
2018-04-06T11:39:04.073Z,27.59
2018-04-06T11:40:04.300Z,29.11
2018-04-06T11:41:04.531Z,29.00
2018-04-06T11:42:04.759Z,28.92
2018-04-06T11:43:04.989Z,28.06
2018-04-06T11:44:05.239Z,28.73
2018-04-06T11:45:05.445Z,28.06
2018-04-06T11:46:05.676Z,27.97
2018-04-06T11:47:05.909Z,27.68
2018-04-06T11:48:06.139Z,26.45
2018-04-06T11:49:06.368Z,26.55
2018-04-06T11:50:06.593Z,26.45
2018-04-06T11:51:06.820Z,25.40
2018-04-06T11:52:07.051Z,24.83
2018-04-06T11:53:07.282Z,24.54
2018-04-06T11:54:07.560Z,25.59
2018-04-06T11:55:07.744Z,25.98
2018-04-06T11:56:07.959Z,24.64
2018-04-06T11:57:08.198Z,24.35
2018-04-06T11:58:08.431Z,24.93
2018-04-06T11:59:08.669Z,24.73
2018-04-06T12:00:08.903Z,24.45
2018-04-06T12:01:09.124Z,24.94
2018-04-06T12:02:09.350Z,24.16
2018-04-06T12:03:09.582Z,23.68
2018-04-06T12:04:09.816Z,23.21
2018-04-06T12:05:10.043Z,23.68
2018-04-06T12:06:10.276Z,24.26
2018-04-06T12:07:10.498Z,25.12
2018-04-06T12:08:10.736Z,25.12
2018-04-06T12:09:10.963Z,25.31
2018-04-06T12:10:11.194Z,26.37
2018-04-06T12:11:11.423Z,25.31
2018-04-06T12:12:11.653Z,24.64
2018-04-06T12:13:11.887Z,23.30
2018-04-06T12:14:12.113Z,24.07
2018-04-06T12:15:12.346Z,24.18
2018-04-06T12:16:12.574Z,24.94
2018-04-06T12:17:12.805Z,25.88
2018-04-06T12:18:13.033Z,26.56
2018-04-06T12:19:13.265Z,25.51
2018-04-06T12:20:13.494Z,25.59
2018-04-06T12:21:13.722Z,25.51
2018-04-06T12:22:13.962Z,25.23
2018-04-06T12:23:14.182Z,25.50
2018-04-06T12:24:14.411Z,24.64
2018-04-06T12:25:14.639Z,26.84
2018-04-06T12:26:14.870Z,27.79
2018-04-06T12:27:15.099Z,27.70
2018-04-06T12:28:15.328Z,27.61
2018-04-06T12:29:15.556Z,26.66
2018-04-06T12:30:15.792Z,26.55
2018-04-06T12:31:16.023Z,25.03
2018-04-06T12:32:16.254Z,24.07
2018-04-06T12:33:16.481Z,25.88
2018-04-06T12:34:16.713Z,26.28
2018-04-06T12:35:16.939Z,28.00
2018-04-06T12:36:17.177Z,27.71
2018-04-06T12:37:17.397Z,26.66
2018-04-06T12:38:17.629Z,26.56
2018-04-06T12:39:17.864Z,26.75
2018-04-06T12:40:18.085Z,26.66
2018-04-06T12:41:18.318Z,26.37
2018-04-06T12:42:18.556Z,25.99
2018-04-06T12:43:18.781Z,26.37
2018-04-06T12:44:19.010Z,26.28
2018-04-06T12:45:19.238Z,25.99
2018-04-06T12:46:19.472Z,25.32
2018-04-06T12:47:19.698Z,24.37
2018-04-06T12:48:19.927Z,24.37
2018-04-06T12:49:20.155Z,24.08
2018-04-06T12:50:20.386Z,24.37
2018-04-06T12:51:20.613Z,25.32
2018-04-06T12:52:20.842Z,26.75
2018-04-06T12:53:21.072Z,27.71
2018-04-06T12:54:21.299Z,27.04
2018-04-06T12:55:21.531Z,27.90